createdAt,value
2018-11-02T00:03:02.157Z,102004.89
2018-11-02T00:06:05.762Z,102007.84
2018-11-02T00:09:09.194Z,102004.63
2018-11-02T00:12:12.779Z,102012.61
2018-11-02T00:15:16.217Z,102016.06
2018-11-02T00:18:19.891Z,102015.40
2018-11-02T00:21:23.331Z,102023.43
2018-11-02T00:24:27.438Z,102023.43
2018-11-02T00:27:30.931Z,102016.78
2018-11-02T00:30:34.477Z,102027.45
2018-11-02T00:33:37.991Z,102021.07
2018-11-02T00:36:41.599Z,102018.15
2018-11-02T00:39:45.161Z,102025.31
2018-11-02T00:42:48.713Z,102033.56
2018-11-02T00:45:52.137Z,102039.17
2018-11-02T00:48:55.960Z,102045.98
2018-11-02T00:51:59.356Z,102050.53
2018-11-02T00:55:02.838Z,102056.33
2018-11-02T00:58:07.542Z,102055.19
2018-11-02T01:01:11.021Z,102065.64
2018-11-02T01:04:14.563Z,102069.42
2018-11-02T01:07:18.052Z,102057.83
2018-11-02T01:10:21.560Z,102056.12
2018-11-02T01:13:25.001Z,102055.95
2018-11-02T01:16:28.481Z,102049.36
2018-11-02T01:19:33.875Z,102047.75
2018-11-02T01:22:37.421Z,102046.29
2018-11-02T01:25:40.879Z,102058.01
2018-11-02T01:28:44.381Z,102056.57
2018-11-02T01:31:47.951Z,102057.12
2018-11-02T01:34:51.446Z,102059.06
2018-11-02T01:37:54.946Z,102058.51
2018-11-02T01:40:58.594Z,102061.61
2018-11-02T01:44:02.085Z,102070.08
2018-11-02T01:47:05.514Z,102088.06
2018-11-02T01:50:08.990Z,102088.05
2018-11-02T01:53:12.648Z,102094.59
2018-11-02T01:56:16.207Z,102096.99
2018-11-02T01:59:19.692Z,102101.80
2018-11-02T02:02:23.079Z,102100.65
2018-11-02T02:05:26.489Z,102096.21
2018-11-02T02:08:29.903Z,102089.56
2018-11-02T02:11:33.303Z,102082.75
2018-11-02T02:14:36.872Z,102087.59
2018-11-02T02:17:40.306Z,102089.80
2018-11-02T02:20:43.758Z,102089.08
2018-11-02T02:23:47.212Z,102098.10
2018-11-02T02:26:50.677Z,102100.94
2018-11-02T02:29:53.984Z,102096.72
2018-11-02T02:32:57.387Z,102096.56
2018-11-02T02:36:00.889Z,102095.16
2018-11-02T02:39:05.216Z,102100.21
2018-11-02T02:42:08.719Z,102107.19
2018-11-02T02:45:12.854Z,102109.19
2018-11-02T02:48:16.239Z,102114.43
2018-11-02T02:51:19.863Z,102117.80
2018-11-02T02:54:23.229Z,102121.92
2018-11-02T02:57:26.901Z,102126.98
2018-11-02T03:00:31.280Z,102131.85
2018-11-02T03:03:34.728Z,102142.86
2018-11-02T03:06:38.212Z,102151.55
2018-11-02T03:09:41.690Z,102160.32
2018-11-02T03:12:45.147Z,102160.49
2018-11-02T03:15:48.585Z,102161.43
2018-11-02T03:18:52.265Z,102163.86
2018-11-02T03:21:55.569Z,102172.27
2018-11-02T03:24:59.085Z,102179.15
2018-11-02T03:28:02.613Z,102180.05
2018-11-02T03:31:06.282Z,102189.74
2018-11-02T03:34:09.691Z,102194.11
2018-11-02T03:37:13.205Z,102198.09
2018-11-02T03:40:16.764Z,102202.32
2018-11-02T03:43:20.418Z,102206.05
2018-11-02T03:46:23.904Z,102206.40
2018-11-02T03:49:27.425Z,102206.09
2018-11-02T03:52:30.974Z,102205.93
2018-11-02T03:55:34.552Z,102200.62
2018-11-02T03:58:38.090Z,102198.40
2018-11-02T04:01:41.749Z,102200.72
2018-11-02T04:04:45.415Z,102193.63
2018-11-02T04:07:48.997Z,102194.38
2018-11-02T04:10:53.500Z,102192.57
2018-11-02T04:13:57.027Z,102195.42
2018-11-02T04:17:00.577Z,102193.99
2018-11-02T04:20:04.861Z,102191.47
2018-11-02T04:23:08.402Z,102204.86
2018-11-02T04:26:11.947Z,102217.11
2018-11-02T04:29:16.153Z,102226.76
2018-11-02T04:32:19.834Z,102232.14
2018-11-02T04:35:23.356Z,102245.49
2018-11-02T04:38:26.832Z,102249.33
2018-11-02T04:41:32.392Z,102250.97
2018-11-02T04:44:36.053Z,102262.78
2018-11-02T04:47:39.657Z,102259.93
2018-11-02T04:50:43.143Z,102260.45
2018-11-02T04:53:47.716Z,102259.01
2018-11-02T04:56:51.832Z,102260.18
2018-11-02T04:59:55.408Z,102256.43
2018-11-02T05:02:58.955Z,102250.94
2018-11-02T05:06:02.530Z,102252.71
2018-11-02T05:09:07.883Z,102260.25
2018-11-02T05:12:11.475Z,102274.32
2018-11-02T05:15:15.037Z,102269.72
2018-11-02T05:18:18.607Z,102272.21
2018-11-02T05:21:22.203Z,102279.43
2018-11-02T05:24:25.796Z,102277.47
2018-11-02T05:27:29.493Z,102278.62
2018-11-02T05:30:32.953Z,102288.30
2018-11-02T05:33:36.579Z,102291.31
2018-11-02T05:36:40.121Z,102295.37
2018-11-02T05:39:44.029Z,102298.80
2018-11-02T05:42:47.562Z,102297.97
2018-11-02T05:45:51.132Z,102297.47
2018-11-02T05:48:54.757Z,102299.08
2018-11-02T05:51:58.350Z,102300.68
2018-11-02T05:55:01.873Z,102302.63
2018-11-02T05:58:05.638Z,102305.24
2018-11-02T06:01:09.123Z,102312.20
2018-11-02T06:04:12.662Z,102315.71
2018-11-02T06:07:16.215Z,102322.49
2018-11-02T06:10:19.717Z,102327.84
2018-11-02T06:13:23.337Z,102324.23
2018-11-02T06:16:26.912Z,102332.12
2018-11-02T06:19:30.458Z,102334.09
2018-11-02T06:22:33.979Z,102345.27
2018-11-02T06:25:37.505Z,102344.24
2018-11-02T06:28:41.077Z,102346.46
2018-11-02T06:31:44.601Z,102350.64
2018-11-02T06:34:49.357Z,102359.96
2018-11-02T06:37:52.947Z,102365.15
2018-11-02T06:40:56.687Z,102373.86
2018-11-02T06:44:00.362Z,102384.72
2018-11-02T06:47:03.976Z,102391.66
2018-11-02T06:50:07.898Z,102391.77
2018-11-02T06:53:11.443Z,102397.76
2018-11-02T06:56:15.005Z,102408.03
2018-11-02T06:59:18.646Z,102423.16
2018-11-02T07:02:22.041Z,102419.95
2018-11-02T07:05:25.542Z,102426.67
2018-11-02T07:08:29.470Z,102431.04
2018-11-02T07:11:34.015Z,102437.01
2018-11-02T07:14:37.501Z,102443.51
2018-11-02T07:17:41.008Z,102453.84
2018-11-02T07:20:44.545Z,102454.37
2018-11-02T07:23:48.055Z,102466.32
2018-11-02T07:26:51.656Z,102466.73
2018-11-02T07:29:55.398Z,102473.87
2018-11-02T07:32:59.029Z,102469.67
2018-11-02T07:36:02.555Z,102464.08
2018-11-02T07:39:09.281Z,102467.24
2018-11-02T07:42:12.729Z,102470.71
2018-11-02T07:45:16.253Z,102468.23
2018-11-02T07:48:19.867Z,102465.32
2018-11-02T07:51:24.259Z,102461.19
2018-11-02T07:54:27.954Z,102465.50
2018-11-02T07:57:31.643Z,102475.85
2018-11-02T08:00:35.207Z,102479.16
2018-11-02T08:03:39.085Z,102479.96
2018-11-02T08:06:42.837Z,102473.88
2018-11-02T08:09:46.510Z,102471.68
2018-11-02T08:12:50.043Z,102477.06
2018-11-02T08:15:53.542Z,102483.88
2018-11-02T08:18:57.259Z,102485.10
2018-11-02T08:22:00.799Z,102485.30
2018-11-02T08:25:05.305Z,102487.90
2018-11-02T08:28:09.171Z,102494.11
2018-11-02T08:31:12.713Z,102490.79
2018-11-02T08:34:16.313Z,102490.88
2018-11-02T08:37:19.871Z,102485.30
2018-11-02T08:40:23.674Z,102485.64
2018-11-02T08:43:27.236Z,102485.01
2018-11-02T08:46:30.898Z,102480.07
2018-11-02T08:49:34.610Z,102486.59
2018-11-02T08:52:38.114Z,102488.95
2018-11-02T08:55:41.801Z,102492.08
2018-11-02T08:58:46.706Z,102494.70
2018-11-02T09:01:49.897Z,102499.38
2018-11-02T09:04:53.667Z,102495.03
2018-11-02T09:07:57.356Z,102494.91
2018-11-02T09:11:00.870Z,102487.72
2018-11-02T09:14:04.745Z,102486.33
2018-11-02T09:17:08.620Z,102490.35
2018-11-02T09:20:12.329Z,102495.86
2018-11-02T09:23:16.470Z,102491.20
2018-11-02T09:26:20.063Z,102489.87
2018-11-02T09:29:23.543Z,102490.06
2018-11-02T09:32:27.206Z,102490.24
2018-11-02T09:35:30.729Z,102490.67
2018-11-02T09:38:34.244Z,102487.19
2018-11-02T09:41:37.783Z,102495.67
2018-11-02T09:44:42.259Z,102503.21
2018-11-02T09:47:45.751Z,102500.55
2018-11-02T09:50:49.241Z,102502.28
2018-11-02T09:53:52.813Z,102506.02
2018-11-02T09:56:56.468Z,102505.18
2018-11-02T10:00:00.034Z,102502.63
2018-11-02T10:03:03.603Z,102506.38
2018-11-02T10:06:07.109Z,102500.17
2018-11-02T10:09:12.137Z,102501.36
2018-11-02T10:12:15.587Z,102496.88
2018-11-02T10:15:19.281Z,102505.79
2018-11-02T10:18:22.963Z,102501.45
2018-11-02T10:21:26.568Z,102486.60
2018-11-02T10:24:30.064Z,102485.58
2018-11-02T10:27:33.659Z,102488.72
2018-11-02T10:30:37.256Z,102497.18
2018-11-02T10:33:41.130Z,102496.99
2018-11-02T10:36:44.777Z,102493.14
2018-11-02T10:39:48.655Z,102495.41
2018-11-02T10:42:58.599Z,102498.29
2018-11-02T10:46:02.502Z,102492.31
2018-11-02T10:49:06.338Z,102486.32
2018-11-02T10:52:09.933Z,102481.42
2018-11-02T10:55:13.491Z,102486.42
2018-11-02T10:58:17.031Z,102482.97
2018-11-02T11:01:26.210Z,102478.92
2018-11-02T11:04:29.622Z,102474.68
2018-11-02T11:07:33.512Z,102479.18
2018-11-02T11:10:37.167Z,102478.18
2018-11-02T11:13:41.044Z,102480.40
2018-11-02T11:16:46.459Z,102472.32
2018-11-02T11:19:50.369Z,102465.06
2018-11-02T11:22:53.958Z,102474.61
2018-11-02T11:25:57.465Z,102475.54
2018-11-02T11:29:01.113Z,102475.50
2018-11-02T11:32:05.339Z,102471.11
2018-11-02T11:35:10.650Z,102472.84
2018-11-02T11:38:14.244Z,102474.93
2018-11-02T11:41:17.861Z,102477.67
2018-11-02T11:44:21.561Z,102474.48
2018-11-02T11:47:25.275Z,102481.37
2018-11-02T11:50:28.843Z,102481.99
2018-11-02T11:53:33.576Z,102486.59
2018-11-02T11:56:37.180Z,102483.94
2018-11-02T11:59:40.745Z,102482.81
2018-11-02T12:02:46.474Z,102478.60
2018-11-02T12:05:50.553Z,102482.25
2018-11-02T12:08:54.135Z,102472.09
2018-11-02T12:11:57.935Z,102470.97
2018-11-02T12:15:01.477Z,102485.06
2018-11-02T12:18:05.408Z,102484.54
2018-11-02T12:21:09.994Z,102481.80
2018-11-02T12:24:13.653Z,102487.30
2018-11-02T12:27:19.347Z,102481.94
2018-11-02T12:30:22.920Z,102480.38
2018-11-02T12:33:26.566Z,102484.63
2018-11-02T12:36:30.300Z,102481.98
2018-11-02T12:39:33.805Z,102487.68
2018-11-02T12:42:38.014Z,102498.62
2018-11-02T12:45:41.569Z,102499.97
2018-11-02T12:48:45.518Z,102501.90
2018-11-02T12:51:48.989Z,102496.51
2018-11-02T12:54:52.544Z,102483.83
2018-11-02T12:57:56.056Z,102490.11
2018-11-02T13:00:59.531Z,102493.98
2018-11-02T13:04:03.021Z,102494.50
2018-11-02T13:07:06.673Z,102502.97
2018-11-02T13:10:11.585Z,102508.12
2018-11-02T13:13:15.167Z,102507.40
2018-11-02T13:16:18.732Z,102497.90
2018-11-02T13:19:22.240Z,102489.02
2018-11-02T13:22:25.808Z,102482.87
2018-11-02T13:25:29.275Z,102487.32
2018-11-02T13:28:32.733Z,102491.80
2018-11-02T13:31:36.255Z,102497.33
2018-11-02T13:34:39.704Z,102487.01
2018-11-02T13:37:43.917Z,102488.39
2018-11-02T13:40:47.428Z,102493.16
2018-11-02T13:43:51.065Z,102497.30
2018-11-02T13:46:54.558Z,102492.53
2018-11-02T13:49:58.004Z,102495.69
2018-11-02T13:53:01.501Z,102500.87
2018-11-02T13:56:05.456Z,102500.63
2018-11-02T13:59:08.850Z,102495.85
2018-11-02T14:02:12.281Z,102491.88
2018-11-02T14:05:16.676Z,102497.49
2018-11-02T14:08:20.200Z,102502.74
2018-11-02T14:11:23.648Z,102501.18
2018-11-02T14:14:27.211Z,102507.05
2018-11-02T14:17:30.690Z,102507.89
2018-11-02T14:20:34.184Z,102513.65
2018-11-02T14:23:37.756Z,102508.49
2018-11-02T14:26:41.321Z,102509.36
2018-11-02T14:29:44.789Z,102510.92
2018-11-02T14:32:48.908Z,102526.81
2018-11-02T14:35:52.445Z,102531.35
2018-11-02T14:38:55.910Z,102534.69
2018-11-02T14:41:59.441Z,102536.85
2018-11-02T14:45:02.937Z,102542.44
2018-11-02T14:48:06.513Z,102544.29
2018-11-02T14:51:09.889Z,102538.07
2018-11-02T14:54:13.525Z,102545.21
2018-11-02T14:57:17.246Z,102542.75
2018-11-02T15:00:20.754Z,102536.30
2018-11-02T15:03:24.291Z,102538.21
2018-11-02T15:06:27.767Z,102551.65
2018-11-02T15:09:31.217Z,102559.56
2018-11-02T15:12:34.677Z,102570.92
2018-11-02T15:15:38.146Z,102581.19
2018-11-02T15:18:41.746Z,102582.19
2018-11-02T15:21:45.287Z,102586.48
2018-11-02T15:24:49.541Z,102590.62
2018-11-02T15:27:53.067Z,102595.00
2018-11-02T15:30:56.574Z,102599.40
2018-11-02T15:34:00.104Z,102594.12
2018-11-02T15:37:03.634Z,102598.82
2018-11-02T15:40:08.228Z,102611.36
2018-11-02T15:43:11.699Z,102608.79
2018-11-02T15:46:15.093Z,102608.88
2018-11-02T15:49:18.620Z,102607.42
2018-11-02T15:52:22.161Z,102606.43
2018-11-02T15:55:25.660Z,102617.60
2018-11-02T15:58:29.159Z,102624.51
2018-11-02T16:01:32.796Z,102627.63
2018-11-02T16:04:36.204Z,102632.34
2018-11-02T16:07:39.966Z,102629.14
2018-11-02T16:10:43.508Z,102629.56
2018-11-02T16:13:46.971Z,102639.02
2018-11-02T16:16:50.474Z,102642.05
2018-11-02T16:19:53.936Z,102650.86
2018-11-02T16:22:57.391Z,102656.41
2018-11-02T16:26:00.904Z,102665.57
2018-11-02T16:29:04.375Z,102668.31
2018-11-02T16:32:07.870Z,102666.03
2018-11-02T16:35:12.595Z,102673.42
2018-11-02T16:38:16.128Z,102674.88
2018-11-02T16:41:19.549Z,102671.76
2018-11-02T16:44:23.194Z,102678.99
2018-11-02T16:47:26.833Z,102688.32
2018-11-02T16:50:30.540Z,102690.50
2018-11-02T16:53:33.799Z,102698.86
2018-11-02T16:56:38.346Z,102694.47
2018-11-02T16:59:42.026Z,102693.46
2018-11-02T17:02:46.580Z,102702.31
2018-11-02T17:05:50.361Z,102709.16
2018-11-02T17:08:53.869Z,102720.50
2018-11-02T17:11:57.415Z,102727.00
2018-11-02T17:15:01.012Z,102734.59
2018-11-02T17:18:05.163Z,102744.28
2018-11-02T17:21:08.733Z,102762.28
2018-11-02T17:24:12.513Z,102758.41
2018-11-02T17:27:16.251Z,102763.26
2018-11-02T17:30:20.754Z,102769.88
2018-11-02T17:33:24.243Z,102766.15
2018-11-02T17:36:27.737Z,102772.12
2018-11-02T17:39:31.288Z,102779.37
2018-11-02T17:42:34.751Z,102786.59
2018-11-02T17:45:38.357Z,102792.31
2018-11-02T17:48:41.902Z,102797.98
2018-11-02T17:51:45.551Z,102797.25
2018-11-02T17:54:49.205Z,102799.32
2018-11-02T17:57:53.912Z,102806.34
2018-11-02T18:00:57.786Z,102807.13
2018-11-02T18:04:01.376Z,102809.84
2018-11-02T18:07:05.605Z,102809.29
2018-11-02T18:10:11.341Z,102815.21
2018-11-02T18:13:14.946Z,102818.77
2018-11-02T18:16:18.639Z,102815.88
2018-11-02T18:19:22.287Z,102815.71
2018-11-02T18:22:25.938Z,102818.73
2018-11-02T18:25:29.593Z,102827.89
2018-11-02T18:28:33.137Z,102833.61
2018-11-02T18:31:36.682Z,102840.18
2018-11-02T18:34:40.333Z,102844.55
2018-11-02T18:37:43.909Z,102847.18
2018-11-02T18:40:47.509Z,102843.24
2018-11-02T18:43:51.295Z,102846.37
2018-11-02T18:46:54.935Z,102851.14
2018-11-02T18:49:58.501Z,102850.74
2018-11-02T18:53:03.104Z,102851.79
2018-11-02T18:56:06.705Z,102845.29
2018-11-02T18:59:10.335Z,102845.71
2018-11-02T19:02:13.919Z,102852.31
2018-11-02T19:05:18.544Z,102849.51
2018-11-02T19:08:22.505Z,102855.79
2018-11-02T19:11:26.234Z,102855.16
2018-11-02T19:14:29.969Z,102856.72
2018-11-02T19:17:33.530Z,102863.58
2018-11-02T19:20:37.136Z,102864.31
2018-11-02T19:23:40.730Z,102875.44
2018-11-02T19:26:44.605Z,102880.92
2018-11-02T19:29:48.459Z,102893.27
2018-11-02T19:32:53.006Z,102902.61
2018-11-02T19:35:56.507Z,102915.50
2018-11-02T19:39:00.131Z,102925.16
2018-11-02T19:42:03.701Z,102923.22
2018-11-02T19:45:08.150Z,102926.63
2018-11-02T19:48:11.706Z,102941.85
2018-11-02T19:51:15.137Z,102936.27
2018-11-02T19:54:18.902Z,102941.84
2018-11-02T19:57:22.454Z,102955.73
2018-11-02T20:00:25.908Z,102967.42
2018-11-02T20:03:29.413Z,102967.88
2018-11-02T20:06:32.871Z,102961.72
2018-11-02T20:09:36.369Z,102964.67
2018-11-02T20:12:39.866Z,102968.51
2018-11-02T20:15:46.759Z,102968.87
2018-11-02T20:18:50.289Z,102965.19
2018-11-02T20:21:53.910Z,102969.70
2018-11-02T20:24:57.390Z,102975.60
2018-11-02T20:28:00.870Z,102990.03
2018-11-02T20:31:04.528Z,102991.00
2018-11-02T20:34:08.551Z,102995.93
2018-11-02T20:37:12.028Z,103002.92
2018-11-02T20:40:17.242Z,103003.70
2018-11-02T20:43:20.702Z,103009.43
2018-11-02T20:46:24.224Z,103009.07
2018-11-02T20:49:28.888Z,103010.12
2018-11-02T20:52:32.429Z,103006.45
2018-11-02T20:55:35.905Z,103007.81
2018-11-02T20:58:39.429Z,103019.66
2018-11-02T21:01:42.872Z,103028.42
2018-11-02T21:04:46.583Z,103020.27
2018-11-02T21:07:50.863Z,103017.54
2018-11-02T21:10:54.319Z,103019.30
2018-11-02T21:13:58.204Z,103025.76
2018-11-02T21:17:01.775Z,103011.69
2018-11-02T21:20:06.952Z,103022.70
2018-11-02T21:23:10.646Z,103028.36
2018-11-02T21:26:14.123Z,103032.77
2018-11-02T21:29:17.635Z,103039.28
2018-11-02T21:32:22.293Z,103036.37
2018-11-02T21:35:25.868Z,103036.10
2018-11-02T21:38:29.533Z,103039.68
2018-11-02T21:41:32.970Z,103035.85
2018-11-02T21:44:36.458Z,103028.42
2018-11-02T21:47:40.098Z,103024.90
2018-11-02T21:50:43.546Z,103028.42
2018-11-02T21:53:47.107Z,103032.12
2018-11-02T21:56:50.627Z,103028.03
2018-11-02T21:59:54.103Z,103030.36
2018-11-02T22:02:57.640Z,103033.65
2018-11-02T22:06:01.358Z,103030.75
2018-11-02T22:09:06.771Z,103032.96
2018-11-02T22:12:10.241Z,103025.65
2018-11-02T22:15:13.711Z,103034.25
2018-11-02T22:18:17.232Z,103039.54
2018-11-02T22:21:20.681Z,103046.50
2018-11-02T22:24:24.191Z,103045.02
2018-11-02T22:27:27.744Z,103048.19
2018-11-02T22:30:31.244Z,103051.96
2018-11-02T22:33:34.759Z,103045.12
2018-11-02T22:36:40.300Z,103050.70
2018-11-02T22:39:43.745Z,103048.28
2018-11-02T22:42:47.337Z,103052.25
2018-11-02T22:45:50.926Z,103050.53
2018-11-02T22:48:54.480Z,103045.18
2018-11-02T22:51:58.154Z,103042.34
2018-11-02T22:55:01.750Z,103036.41
2018-11-02T22:58:05.709Z,103039.20
2018-11-02T23:01:14.316Z,103047.38
2018-11-02T23:04:17.859Z,103054.45
2018-11-02T23:07:21.428Z,103061.22
2018-11-02T23:10:24.996Z,103054.62
2018-11-02T23:13:28.514Z,103054.46
2018-11-02T23:16:32.007Z,103060.30
2018-11-02T23:19:35.659Z,103058.69
2018-11-02T23:22:39.018Z,103061.12
2018-11-02T23:25:42.507Z,103068.93
2018-11-02T23:28:46.046Z,103065.82
2018-11-02T23:31:49.536Z,103066.85
2018-11-02T23:34:53.119Z,103064.97
2018-11-02T23:37:56.748Z,103056.15
2018-11-02T23:41:00.264Z,103053.91
2018-11-02T23:44:03.806Z,103054.28
2018-11-02T23:47:07.355Z,103047.20
2018-11-02T23:50:10.906Z,103048.46
2018-11-02T23:53:15.364Z,103055.60
2018-11-02T23:56:18.936Z,103056.00
2018-11-02T23:59:22.534Z,103061.04
